createdAt,value
2019-01-19T00:01:55.999Z,43.00
2019-01-19T00:04:47.695Z,47.37
2019-01-19T00:07:41.997Z,46.00
2019-01-19T00:10:33.662Z,43.40
2019-01-19T00:13:43.700Z,47.23
2019-01-19T00:17:08.982Z,52.20
2019-01-19T00:20:10.712Z,52.33
2019-01-19T00:23:13.231Z,54.20
2019-01-19T00:26:08.035Z,54.07
2019-01-19T00:28:45.875Z,50.63
2019-01-19T00:31:22.098Z,57.77
2019-01-19T00:34:33.841Z,55.43
2019-01-19T00:37:16.228Z,47.03
2019-01-19T00:40:34.652Z,49.30
2019-01-19T00:43:13.064Z,57.07
2019-01-19T00:46:32.164Z,65.60
2019-01-19T00:49:17.019Z,53.53
2019-01-19T00:52:32.018Z,49.93
2019-01-19T00:55:27.977Z,47.43
2019-01-19T00:58:25.216Z,50.50
2019-01-19T01:01:20.580Z,55.20
2019-01-19T01:04:26.354Z,60.50
2019-01-19T01:07:36.454Z,57.97
2019-01-19T01:11:00.447Z,57.70
2019-01-19T01:13:56.505Z,51.90
2019-01-19T01:17:02.528Z,57.03
2019-01-19T01:20:07.799Z,57.63
2019-01-19T01:23:10.379Z,58.87
2019-01-19T01:26:32.787Z,57.73
2019-01-19T01:29:24.454Z,53.20
2019-01-19T01:32:21.544Z,56.80
2019-01-19T01:35:36.832Z,59.67
2019-01-19T01:38:34.350Z,59.50
2019-01-19T01:41:30.762Z,65.87
2019-01-19T01:44:30.282Z,54.53
2019-01-19T01:47:38.254Z,56.30
2019-01-19T01:50:16.480Z,59.73
2019-01-19T01:52:58.765Z,58.27
2019-01-19T01:55:39.859Z,63.70
2019-01-19T01:58:46.079Z,65.67
2019-01-19T02:01:45.407Z,56.47
2019-01-19T02:04:42.745Z,79.80
2019-01-19T02:07:24.903Z,61.70
2019-01-19T02:10:37.788Z,70.20
2019-01-19T02:13:41.447Z,69.47
2019-01-19T02:16:53.343Z,78.87
2019-01-19T02:19:48.793Z,68.17
2019-01-19T02:22:43.878Z,67.90
2019-01-19T02:25:34.886Z,63.57
2019-01-19T02:28:51.087Z,72.30
2019-01-19T02:32:06.219Z,64.60
2019-01-19T02:34:58.306Z,67.27
2019-01-19T02:38:09.132Z,64.33
2019-01-19T02:41:02.515Z,63.23
2019-01-19T02:44:05.090Z,67.23
2019-01-19T02:47:13.830Z,57.33
2019-01-19T02:50:01.489Z,63.17
2019-01-19T02:53:13.404Z,63.97
2019-01-19T02:56:09.455Z,69.73
2019-01-19T02:59:12.101Z,64.17
2019-01-19T03:01:51.179Z,59.17
2019-01-19T03:04:50.418Z,64.30
2019-01-19T03:07:50.547Z,62.30
2019-01-19T03:10:55.723Z,64.90
2019-01-19T03:14:21.624Z,65.37
2019-01-19T03:17:31.652Z,58.87
2019-01-19T03:20:09.030Z,61.27
2019-01-19T03:23:09.632Z,59.97
2019-01-19T03:25:54.155Z,61.30
2019-01-19T03:28:45.161Z,57.27
2019-01-19T03:31:48.115Z,61.70
2019-01-19T03:34:34.971Z,57.03
2019-01-19T03:37:27.327Z,58.70
2019-01-19T03:40:32.148Z,58.07
2019-01-19T03:43:18.613Z,60.20
2019-01-19T03:46:35.135Z,58.93
2019-01-19T03:50:03.414Z,65.77
2019-01-19T03:53:20.487Z,60.80
2019-01-19T03:56:22.833Z,61.90
2019-01-19T03:59:07.359Z,55.13
2019-01-19T04:02:13.415Z,52.90
2019-01-19T04:04:52.848Z,57.83
2019-01-19T04:07:31.386Z,60.50
2019-01-19T04:10:56.551Z,61.23
2019-01-19T04:13:50.702Z,57.17
2019-01-19T04:16:41.403Z,58.07
2019-01-19T04:19:53.674Z,57.47
2019-01-19T04:22:53.549Z,53.00
2019-01-19T04:25:49.705Z,58.77
2019-01-19T04:28:20.201Z,53.83
2019-01-19T04:30:49.696Z,51.50
2019-01-19T04:33:18.629Z,52.27
2019-01-19T04:35:47.531Z,54.17
2019-01-19T04:38:16.546Z,51.47
2019-01-19T04:40:45.585Z,52.90
2019-01-19T04:43:14.773Z,60.67
2019-01-19T04:45:43.631Z,57.53
2019-01-19T04:48:12.454Z,48.23
2019-01-19T04:50:41.301Z,53.30
2019-01-19T04:53:10.136Z,57.30
2019-01-19T04:55:38.966Z,56.00
2019-01-19T04:58:07.864Z,56.37
2019-01-19T05:00:36.856Z,57.93
2019-01-19T05:03:05.894Z,55.50
2019-01-19T05:05:34.826Z,55.63
2019-01-19T05:08:03.807Z,68.10
2019-01-19T05:10:32.624Z,63.23
2019-01-19T05:13:01.531Z,57.27
2019-01-19T05:15:30.505Z,64.03
2019-01-19T05:17:59.845Z,65.73
2019-01-19T05:20:28.774Z,66.30
2019-01-19T05:22:57.617Z,58.40
2019-01-19T05:25:26.605Z,58.83
2019-01-19T05:27:55.511Z,58.30
2019-01-19T05:30:24.354Z,61.73
2019-01-19T05:32:53.170Z,56.10
2019-01-19T05:35:22.366Z,47.93
2019-01-19T05:37:51.317Z,65.70
2019-01-19T05:40:20.251Z,53.60
2019-01-19T05:42:49.090Z,52.30
2019-01-19T05:45:18.175Z,55.13
2019-01-19T05:47:47.088Z,55.77
2019-01-19T05:50:18.390Z,50.57
2019-01-19T05:52:47.318Z,51.73
2019-01-19T05:55:16.296Z,57.90
2019-01-19T05:57:45.263Z,54.47
2019-01-19T06:00:24.826Z,53.20
2019-01-19T06:02:53.759Z,54.33
2019-01-19T06:05:22.774Z,52.80
2019-01-19T06:07:51.802Z,51.97
2019-01-19T06:10:20.744Z,48.63
2019-01-19T06:12:49.710Z,51.87
2019-01-19T06:15:18.709Z,45.37
2019-01-19T06:17:47.744Z,47.83
2019-01-19T06:20:16.922Z,48.97
2019-01-19T06:22:45.951Z,43.53
2019-01-19T06:25:15.138Z,44.20
2019-01-19T06:27:44.147Z,50.40
2019-01-19T06:30:18.888Z,45.73
2019-01-19T06:32:47.951Z,50.73
2019-01-19T06:35:17.224Z,44.17
2019-01-19T06:37:46.521Z,45.27
2019-01-19T06:40:15.993Z,38.67
2019-01-19T06:42:44.986Z,38.07
2019-01-19T06:45:16.346Z,39.87
2019-01-19T06:47:45.290Z,40.83
2019-01-19T06:50:15.483Z,42.27
2019-01-19T06:52:44.527Z,38.70
2019-01-19T06:55:15.552Z,38.00
2019-01-19T06:57:44.484Z,36.03
2019-01-19T07:00:15.319Z,38.17
2019-01-19T07:02:44.179Z,38.63
2019-01-19T07:05:13.895Z,41.17
2019-01-19T07:07:43.099Z,40.20
2019-01-19T07:10:14.948Z,36.57
2019-01-19T07:12:45.928Z,40.17
2019-01-19T07:15:15.944Z,36.10
2019-01-19T07:17:45.088Z,41.20
2019-01-19T07:20:22.851Z,30.87
2019-01-19T07:22:52.364Z,36.33
2019-01-19T07:25:21.613Z,30.10
2019-01-19T07:27:50.600Z,35.97
2019-01-19T07:30:20.122Z,31.63
2019-01-19T07:32:49.070Z,33.47
2019-01-19T07:35:18.315Z,26.60
2019-01-19T07:37:48.157Z,32.77
2019-01-19T07:40:17.730Z,31.27
2019-01-19T07:45:31.407Z,30.60
2019-01-19T07:48:00.242Z,29.13
2019-01-19T07:50:29.225Z,28.17
2019-01-19T07:52:58.190Z,26.00
2019-01-19T07:55:27.304Z,29.97
2019-01-19T07:57:56.146Z,28.80
2019-01-19T08:00:28.040Z,24.87
2019-01-19T08:02:57.237Z,25.63
2019-01-19T08:05:26.250Z,29.07
2019-01-19T08:07:55.250Z,22.03
2019-01-19T08:10:24.248Z,21.67
2019-01-19T08:12:53.272Z,26.23
2019-01-19T08:15:23.986Z,25.20
2019-01-19T08:17:52.974Z,28.13
2019-01-19T08:20:22.009Z,26.17
2019-01-19T08:22:51.214Z,24.27
2019-01-19T08:25:20.403Z,21.77
2019-01-19T08:27:49.334Z,24.37
2019-01-19T08:30:20.582Z,24.57
2019-01-19T08:32:49.674Z,24.67
2019-01-19T08:35:18.715Z,21.97
2019-01-19T08:37:48.421Z,23.53
2019-01-19T08:40:22.867Z,20.03
2019-01-19T08:42:58.510Z,26.47
2019-01-19T08:45:27.439Z,24.57
2019-01-19T08:47:56.660Z,25.73
2019-01-19T08:50:25.686Z,22.20
2019-01-19T08:52:54.638Z,23.43
2019-01-19T08:55:23.603Z,19.57
2019-01-19T09:00:20.287Z,21.67
2019-01-19T09:02:49.339Z,22.23
2019-01-19T09:05:18.761Z,19.73
2019-01-19T09:07:47.768Z,19.87
2019-01-19T09:10:16.809Z,22.00
2019-01-19T09:12:45.850Z,18.17
2019-01-19T09:15:15.304Z,20.10
2019-01-19T09:17:44.395Z,18.27
2019-01-19T09:20:14.492Z,21.50
2019-01-19T09:22:43.470Z,18.50
2019-01-19T09:25:14.166Z,23.43
2019-01-19T09:27:43.196Z,19.73
2019-01-19T09:30:15.485Z,23.17
2019-01-19T09:32:44.464Z,20.97
2019-01-19T09:35:13.466Z,18.97
2019-01-19T09:37:42.590Z,20.27
2019-01-19T09:40:12.998Z,24.30
2019-01-19T09:42:42.156Z,24.20
2019-01-19T09:45:11.480Z,22.20
2019-01-19T09:47:40.371Z,19.83
2019-01-19T09:50:11.083Z,23.00
2019-01-19T09:52:40.134Z,19.93
2019-01-19T09:55:09.332Z,23.60
2019-01-19T09:57:38.152Z,25.23
2019-01-19T10:00:10.643Z,25.50
2019-01-19T10:02:39.466Z,25.53
2019-01-19T10:05:11.960Z,24.80
2019-01-19T10:07:48.147Z,25.97
2019-01-19T10:10:11.931Z,20.70
2019-01-19T10:12:40.942Z,26.50
2019-01-19T10:15:11.509Z,23.10
2019-01-19T10:17:40.359Z,23.43
2019-01-19T10:20:12.277Z,23.07
2019-01-19T10:22:41.117Z,24.37
2019-01-19T10:25:11.547Z,22.97
2019-01-19T10:27:40.518Z,26.57
2019-01-19T10:30:13.195Z,25.93
2019-01-19T10:32:42.110Z,22.20
2019-01-19T10:35:11.655Z,31.60
2019-01-19T10:37:40.666Z,30.83
2019-01-19T10:40:10.676Z,38.60
2019-01-19T10:42:39.772Z,26.03
2019-01-19T10:45:11.526Z,30.07
2019-01-19T10:47:40.627Z,24.77
2019-01-19T10:50:11.679Z,23.73
2019-01-19T10:52:40.791Z,33.17
2019-01-19T10:55:11.070Z,30.87
2019-01-19T10:57:39.983Z,63.80
2019-01-19T11:00:13.363Z,55.90
2019-01-19T11:02:42.352Z,41.20
2019-01-19T11:05:13.200Z,39.20
2019-01-19T11:07:44.706Z,36.17
2019-01-19T11:10:16.903Z,36.23
2019-01-19T11:12:46.029Z,30.33
2019-01-19T11:15:15.997Z,40.87
2019-01-19T11:17:44.950Z,26.33
2019-01-19T11:20:22.378Z,31.50
2019-01-19T11:22:51.852Z,28.63
2019-01-19T11:25:20.731Z,29.50
2019-01-19T11:27:49.739Z,28.37
2019-01-19T11:30:20.627Z,27.07
2019-01-19T11:32:49.615Z,27.70
2019-01-19T11:35:19.085Z,25.30
2019-01-19T11:37:48.103Z,32.30
2019-01-19T11:40:22.162Z,22.40
2019-01-19T11:42:51.196Z,25.00
2019-01-19T11:45:21.329Z,23.93
2019-01-19T11:47:50.359Z,25.90
2019-01-19T11:50:19.318Z,24.23
2019-01-19T11:52:48.411Z,24.70
2019-01-19T11:55:20.513Z,26.10
2019-01-19T11:57:54.933Z,24.90
2019-01-19T12:00:25.814Z,26.17
2019-01-19T12:02:55.375Z,23.57
2019-01-19T12:05:24.351Z,28.00
2019-01-19T12:07:53.522Z,23.97
2019-01-19T12:10:24.625Z,24.30
2019-01-19T12:12:53.775Z,23.27
2019-01-19T12:15:22.865Z,25.13
2019-01-19T12:17:51.926Z,23.50
2019-01-19T12:20:23.459Z,23.77
2019-01-19T12:22:52.565Z,22.40
2019-01-19T12:25:22.346Z,30.73
2019-01-19T12:27:51.401Z,20.30
2019-01-19T12:30:22.518Z,26.33
2019-01-19T12:32:51.425Z,23.97
2019-01-19T12:35:20.407Z,21.23
2019-01-19T12:37:49.404Z,19.53
2019-01-19T12:40:19.983Z,25.23
2019-01-19T12:42:50.664Z,26.03
2019-01-19T12:45:23.254Z,18.40
2019-01-19T12:47:52.308Z,17.87
2019-01-19T12:50:23.448Z,20.87
2019-01-19T12:52:53.160Z,19.77
2019-01-19T12:55:22.628Z,23.67
2019-01-19T12:57:51.618Z,30.80
2019-01-19T13:00:25.122Z,28.53
2019-01-19T13:02:54.542Z,19.90
2019-01-19T13:05:47.486Z,18.83
2019-01-19T13:08:18.582Z,19.93
2019-01-19T13:11:04.479Z,20.80
2019-01-19T13:13:39.078Z,22.00
2019-01-19T13:17:01.576Z,18.30
2019-01-19T13:20:01.228Z,24.10
2019-01-19T13:22:49.091Z,20.43
2019-01-19T13:25:58.211Z,24.27
2019-01-19T13:28:55.147Z,22.00
2019-01-19T13:32:06.843Z,27.67
2019-01-19T13:35:12.968Z,18.80
2019-01-19T13:38:01.687Z,21.33
2019-01-19T13:41:08.979Z,20.60
2019-01-19T13:44:19.991Z,21.40
2019-01-19T13:47:29.951Z,20.90
2019-01-19T13:50:44.519Z,21.37
2019-01-19T13:53:59.661Z,24.00
2019-01-19T13:56:55.847Z,19.33
2019-01-19T13:59:46.795Z,20.53
2019-01-19T14:02:52.898Z,20.20
2019-01-19T14:06:14.251Z,20.20
2019-01-19T14:09:01.936Z,19.20
2019-01-19T14:12:02.448Z,19.97
2019-01-19T14:15:08.623Z,17.40
2019-01-19T14:18:00.698Z,24.30
2019-01-19T14:21:05.806Z,23.00
2019-01-19T14:23:55.618Z,20.70
2019-01-19T14:27:11.821Z,18.53
2019-01-19T14:30:04.620Z,21.97
2019-01-19T14:33:08.388Z,20.20
2019-01-19T14:36:31.176Z,23.17
2019-01-19T14:39:36.402Z,22.47
2019-01-19T14:42:30.115Z,21.27
2019-01-19T14:45:40.786Z,23.83
2019-01-19T14:48:41.352Z,21.03
2019-01-19T14:51:57.672Z,19.00
2019-01-19T14:54:45.680Z,16.60
2019-01-19T14:57:52.630Z,20.20
2019-01-19T15:01:10.511Z,20.40
2019-01-19T15:03:58.679Z,19.97
2019-01-19T15:07:02.960Z,19.33
2019-01-19T15:10:31.023Z,21.67
2019-01-19T15:13:23.012Z,21.80
2019-01-19T15:16:34.263Z,20.20
2019-01-19T15:19:34.598Z,23.63
2019-01-19T15:22:44.824Z,20.27
2019-01-19T15:25:46.654Z,20.53
2019-01-19T15:29:01.882Z,18.67
2019-01-19T15:31:58.311Z,19.13
2019-01-19T15:34:53.205Z,21.47
2019-01-19T15:38:13.525Z,20.53
2019-01-19T15:41:21.101Z,16.17
2019-01-19T15:44:14.906Z,15.37
2019-01-19T15:47:37.220Z,17.93
2019-01-19T15:50:35.787Z,19.00
2019-01-19T15:53:32.555Z,17.60
2019-01-19T15:56:37.883Z,21.83
2019-01-19T15:59:24.259Z,17.07
2019-01-19T16:02:30.520Z,15.00
2019-01-19T16:05:29.960Z,14.27
2019-01-19T16:08:46.142Z,17.77
2019-01-19T16:11:28.242Z,17.27
2019-01-19T16:14:24.875Z,16.33
2019-01-19T16:17:18.259Z,18.00
2019-01-19T16:20:15.295Z,16.43
2019-01-19T16:23:19.771Z,16.20
2019-01-19T16:26:54.458Z,14.20
2019-01-19T16:29:51.858Z,16.10
2019-01-19T16:32:47.231Z,14.47
2019-01-19T16:35:54.888Z,14.57
2019-01-19T16:39:10.896Z,16.23
2019-01-19T16:42:20.119Z,14.60
2019-01-19T16:45:32.138Z,13.47
2019-01-19T16:48:38.919Z,16.13
2019-01-19T16:51:51.200Z,14.20
2019-01-19T16:54:31.589Z,14.83
2019-01-19T16:57:24.066Z,13.83
2019-01-19T17:00:15.790Z,17.67
2019-01-19T17:03:15.637Z,16.63
2019-01-19T17:06:20.140Z,14.73
2019-01-19T17:09:07.259Z,14.37
2019-01-19T17:11:58.848Z,12.83
2019-01-19T17:15:05.679Z,12.07
2019-01-19T17:17:54.403Z,13.73
2019-01-19T17:20:57.165Z,13.90
2019-01-19T17:23:55.988Z,14.73
2019-01-19T17:26:56.735Z,16.87
2019-01-19T17:30:26.130Z,16.00
2019-01-19T17:33:20.119Z,12.47
2019-01-19T17:36:02.075Z,12.83
2019-01-19T17:38:50.911Z,11.43
2019-01-19T17:41:55.339Z,12.20
2019-01-19T17:45:00.263Z,13.37
2019-01-19T17:47:41.827Z,12.07
2019-01-19T17:50:45.772Z,13.07
2019-01-19T17:54:08.739Z,12.90
2019-01-19T17:57:03.099Z,15.47
2019-01-19T18:00:05.511Z,14.50
2019-01-19T18:03:06.461Z,12.33
2019-01-19T18:05:58.769Z,12.47
2019-01-19T18:09:07.821Z,11.80
2019-01-19T18:11:59.487Z,16.97
2019-01-19T18:15:15.840Z,14.13
2019-01-19T18:18:07.919Z,12.30
2019-01-19T18:21:30.092Z,12.80
2019-01-19T18:24:52.378Z,13.43
2019-01-19T18:28:00.665Z,11.50
2019-01-19T18:31:17.950Z,13.00
2019-01-19T18:34:36.959Z,14.40
2019-01-19T18:37:32.032Z,12.67
2019-01-19T18:40:44.199Z,13.63
2019-01-19T18:43:56.163Z,13.50
2019-01-19T18:46:55.292Z,13.20
2019-01-19T18:49:33.689Z,12.80
2019-01-19T18:52:46.120Z,11.13
2019-01-19T18:55:51.955Z,12.47
2019-01-19T18:58:34.946Z,12.70
2019-01-19T19:01:42.461Z,16.90
2019-01-19T19:04:52.380Z,11.60
2019-01-19T19:08:19.751Z,12.73
2019-01-19T19:11:12.816Z,12.83
2019-01-19T19:14:04.508Z,15.40
2019-01-19T19:17:29.943Z,14.00
2019-01-19T19:20:06.186Z,14.83
2019-01-19T19:23:13.647Z,16.33
2019-01-19T19:26:29.980Z,14.13
2019-01-19T19:29:32.447Z,14.53
2019-01-19T19:32:45.964Z,14.53
2019-01-19T19:35:41.138Z,10.53
2019-01-19T19:38:52.490Z,12.77
2019-01-19T19:41:49.261Z,14.33
2019-01-19T19:45:00.235Z,13.93
2019-01-19T19:47:48.695Z,17.00
2019-01-19T19:50:48.515Z,13.60
2019-01-19T19:53:17.347Z,11.40
2019-01-19T19:55:44.878Z,12.70
2019-01-19T19:58:13.900Z,15.23
2019-01-19T20:00:43.145Z,14.00
2019-01-19T20:03:12.084Z,11.03
2019-01-19T20:05:41.071Z,10.53
2019-01-19T20:08:10.087Z,11.17
2019-01-19T20:10:39.104Z,10.27
2019-01-19T20:13:08.149Z,11.33
2019-01-19T20:15:36.971Z,13.53
2019-01-19T20:18:06.359Z,13.57
2019-01-19T20:20:35.213Z,12.03
2019-01-19T20:23:04.348Z,14.03
2019-01-19T20:25:33.285Z,13.17
2019-01-19T20:28:02.306Z,14.20
2019-01-19T20:30:31.302Z,11.83
2019-01-19T20:33:00.385Z,15.60
2019-01-19T20:35:29.302Z,12.03
2019-01-19T20:37:58.117Z,9.47
2019-01-19T20:40:26.995Z,14.07
2019-01-19T20:42:55.822Z,12.50
2019-01-19T20:45:24.849Z,11.93
2019-01-19T20:47:53.671Z,12.43
2019-01-19T20:50:22.687Z,13.13
2019-01-19T20:52:51.835Z,10.97
2019-01-19T20:55:20.813Z,11.07
2019-01-19T20:57:49.679Z,12.93
2019-01-19T21:00:19.345Z,10.77
2019-01-19T21:02:48.443Z,12.30
2019-01-19T21:05:17.411Z,13.93
2019-01-19T21:07:46.454Z,12.63
2019-01-19T21:10:15.484Z,12.70
2019-01-19T21:12:44.406Z,11.20
2019-01-19T21:15:15.426Z,13.17
2019-01-19T21:17:44.661Z,10.30
2019-01-19T21:20:14.931Z,13.43
2019-01-19T21:22:43.999Z,10.57
2019-01-19T21:25:17.420Z,10.17
2019-01-19T21:27:46.284Z,9.97
2019-01-19T21:30:16.458Z,12.10
2019-01-19T21:32:45.371Z,11.13
2019-01-19T21:35:14.459Z,9.30
2019-01-19T21:37:43.295Z,12.30
2019-01-19T21:40:12.938Z,9.70
2019-01-19T21:42:41.892Z,10.90
2019-01-19T21:45:13.695Z,11.40
2019-01-19T21:47:43.037Z,8.93
2019-01-19T21:50:12.377Z,11.50
2019-01-19T21:52:41.332Z,11.90
2019-01-19T21:55:10.337Z,10.50
2019-01-19T21:57:39.257Z,8.50
2019-01-19T22:00:11.243Z,10.40
2019-01-19T22:02:40.243Z,10.23
2019-01-19T22:05:09.407Z,11.37
2019-01-19T22:07:38.213Z,11.27
2019-01-19T22:10:10.011Z,10.70
2019-01-19T22:12:38.902Z,14.73
2019-01-19T22:15:10.639Z,8.80
2019-01-19T22:17:41.339Z,11.27
2019-01-19T22:20:11.850Z,9.40
2019-01-19T22:22:42.027Z,8.13
2019-01-19T22:25:11.022Z,8.53
2019-01-19T22:27:42.875Z,11.47
2019-01-19T22:30:14.301Z,10.97
2019-01-19T22:32:43.225Z,9.37
2019-01-19T22:35:12.335Z,12.50
2019-01-19T22:37:41.434Z,10.90
2019-01-19T22:40:13.580Z,10.03
2019-01-19T22:42:42.732Z,8.07
2019-01-19T22:45:13.537Z,9.30
2019-01-19T22:47:42.505Z,11.33
2019-01-19T22:50:13.812Z,12.43
2019-01-19T22:52:42.731Z,10.50
2019-01-19T22:55:12.172Z,12.87
2019-01-19T22:57:41.097Z,8.63
2019-01-19T23:00:24.045Z,8.37
2019-01-19T23:02:53.174Z,9.87
2019-01-19T23:05:22.204Z,10.47
2019-01-19T23:07:51.206Z,10.37
2019-01-19T23:10:20.203Z,9.57
2019-01-19T23:12:49.116Z,9.70
2019-01-19T23:15:18.031Z,10.77
2019-01-19T23:17:46.966Z,7.67
2019-01-19T23:20:16.676Z,8.53
2019-01-19T23:22:45.563Z,9.97
2019-01-19T23:25:14.608Z,8.43
2019-01-19T23:27:43.565Z,10.13
2019-01-19T23:30:13.028Z,10.87
2019-01-19T23:32:42.130Z,11.27
2019-01-19T23:35:11.178Z,8.63
2019-01-19T23:37:40.165Z,9.80
2019-01-19T23:40:09.685Z,10.07
2019-01-19T23:42:38.636Z,9.87
2019-01-19T23:45:07.959Z,8.87
2019-01-19T23:47:36.979Z,7.40
2019-01-19T23:50:06.551Z,8.73
2019-01-19T23:52:35.563Z,9.63
2019-01-19T23:55:05.375Z,10.23
2019-01-19T23:57:34.367Z,11.00
